TGL25C LFBO-LFLL
Flight info
| Callsign | TGL25C |
|---|---|
| Flight time | 0h 43m |
| Altitude | 26000 |
| Route | MEN DCT NINUN G53 MEZIN |
| Aircraft | A320/M-SDE3FGHIRWY/LB1 |
Departure
| Time | 2026-05-07 13:44 |
|---|---|
| Airport | Toulouse-Blagnac Airport (LFBO) |
Arrival
| Time | 2026-05-07 14:27 |
|---|---|
| Airport | Lyon Saint-Exupéry Airport (LFLL) |
| Time | Latitude | Longitude | Altitude | Speed | Heading |
|---|---|---|---|---|---|
| 2026-05-07 13:02 | 43.63040 | 1.37254 | 494 ft | 0 kts | 53° |
| 2026-05-07 13:32 | 43.63032 | 1.37239 | 481 ft | 3 kts | 53° |
| 2026-05-07 13:32 | 43.63020 | 1.37217 | 485 ft | 3 kts | 53° |
| 2026-05-07 13:32 | 43.63008 | 1.37194 | 485 ft | 3 kts | 58° |
| 2026-05-07 13:33 | 43.62999 | 1.37170 | 492 ft | 3 kts | 78° |
| 2026-05-07 13:33 | 43.62998 | 1.37149 | 489 ft | 3 kts | 133° |
| 2026-05-07 13:33 | 43.63001 | 1.37146 | 494 ft | 0 kts | 140° |
| 2026-05-07 13:35 | 43.62997 | 1.37150 | 487 ft | 2 kts | 141° |
| 2026-05-07 13:35 | 43.62975 | 1.37174 | 489 ft | 6 kts | 141° |
| 2026-05-07 13:36 | 43.62928 | 1.37200 | 491 ft | 9 kts | 178° |
| 2026-05-07 13:36 | 43.62879 | 1.37148 | 489 ft | 10 kts | 236° |
| 2026-05-07 13:36 | 43.62831 | 1.37071 | 488 ft | 11 kts | 212° |
| 2026-05-07 13:36 | 43.62760 | 1.37091 | 483 ft | 12 kts | 146° |
| 2026-05-07 13:37 | 43.62691 | 1.37160 | 488 ft | 13 kts | 142° |
| 2026-05-07 13:37 | 43.62619 | 1.37237 | 489 ft | 13 kts | 143° |
| 2026-05-07 13:37 | 43.62546 | 1.37313 | 491 ft | 13 kts | 143° |
| 2026-05-07 13:37 | 43.62478 | 1.37384 | 491 ft | 12 kts | 143° |
| 2026-05-07 13:38 | 43.62418 | 1.37447 | 491 ft | 10 kts | 143° |
| 2026-05-07 13:38 | 43.62365 | 1.37503 | 491 ft | 9 kts | 143° |
| 2026-05-07 13:38 | 43.62319 | 1.37551 | 486 ft | 8 kts | 143° |
| 2026-05-07 13:38 | 43.62279 | 1.37592 | 491 ft | 6 kts | 143° |
| 2026-05-07 13:39 | 43.62245 | 1.37627 | 489 ft | 6 kts | 143° |
| 2026-05-07 13:39 | 43.62213 | 1.37659 | 486 ft | 6 kts | 143° |
| 2026-05-07 13:39 | 43.62166 | 1.37706 | 489 ft | 11 kts | 144° |
| 2026-05-07 13:39 | 43.62091 | 1.37780 | 489 ft | 16 kts | 144° |
| 2026-05-07 13:40 | 43.62002 | 1.37878 | 489 ft | 17 kts | 141° |
| 2026-05-07 13:40 | 43.61906 | 1.37979 | 494 ft | 18 kts | 146° |
| 2026-05-07 13:40 | 43.61803 | 1.38085 | 491 ft | 19 kts | 142° |
| 2026-05-07 13:40 | 43.61713 | 1.38170 | 489 ft | 11 kts | 156° |
| 2026-05-07 13:41 | 43.61647 | 1.38147 | 488 ft | 10 kts | 222° |
| 2026-05-07 13:41 | 43.61635 | 1.38128 | 486 ft | 0 kts | 230° |
| 2026-05-07 13:42 | 43.61618 | 1.38100 | 488 ft | 7 kts | 230° |
| 2026-05-07 13:42 | 43.61589 | 1.38026 | 490 ft | 9 kts | 261° |
| 2026-05-07 13:43 | 43.61631 | 1.37953 | 485 ft | 13 kts | 323° |
| 2026-05-07 13:43 | 43.61757 | 1.37821 | 486 ft | 43 kts | 323° |
| 2026-05-07 13:43 | 43.62193 | 1.37363 | 490 ft | 111 kts | 322° |
| 2026-05-07 13:43 | 43.62954 | 1.36559 | 488 ft | 162 kts | 322° |
| 2026-05-07 13:44 | 43.63946 | 1.35563 | 855 ft | 180 kts | 325° |
| 2026-05-07 13:44 | 43.64936 | 1.34516 | 1710 ft | 179 kts | 323° |
| 2026-05-07 13:44 | 43.65940 | 1.33409 | 2205 ft | 194 kts | 324° |
| 2026-05-07 13:44 | 43.67062 | 1.32170 | 2551 ft | 219 kts | 323° |
| 2026-05-07 13:45 | 43.68325 | 1.30782 | 3007 ft | 244 kts | 326° |
| 2026-05-07 13:45 | 43.69926 | 1.29897 | 3593 ft | 257 kts | 359° |
| 2026-05-07 13:45 | 43.71646 | 1.30525 | 4430 ft | 263 kts | 34° |
| 2026-05-07 13:45 | 43.72866 | 1.32418 | 5339 ft | 270 kts | 59° |
| 2026-05-07 13:46 | 43.73690 | 1.34785 | 6182 ft | 277 kts | 65° |
| 2026-05-07 13:46 | 43.74448 | 1.37271 | 7010 ft | 284 kts | 66° |
| 2026-05-07 13:46 | 43.75220 | 1.39807 | 7871 ft | 288 kts | 66° |
| 2026-05-07 13:46 | 43.76019 | 1.42372 | 8738 ft | 293 kts | 63° |
| 2026-05-07 13:47 | 43.77008 | 1.44855 | 9608 ft | 297 kts | 58° |
| 2026-05-07 13:47 | 43.78137 | 1.47277 | 10316 ft | 307 kts | 56° |
| 2026-05-07 13:47 | 43.79387 | 1.49815 | 10618 ft | 330 kts | 55° |
| 2026-05-07 13:47 | 43.80710 | 1.52481 | 11199 ft | 341 kts | 56° |
| 2026-05-07 13:48 | 43.81931 | 1.55316 | 11960 ft | 345 kts | 65° |
| 2026-05-07 13:48 | 43.82755 | 1.58447 | 12677 ft | 350 kts | 73° |
| 2026-05-07 13:48 | 43.83468 | 1.61679 | 12931 ft | 351 kts | 74° |
| 2026-05-07 13:48 | 43.84166 | 1.64918 | 12992 ft | 351 kts | 74° |
| 2026-05-07 13:49 | 43.84856 | 1.68159 | 13000 ft | 351 kts | 74° |
| 2026-05-07 13:49 | 43.85548 | 1.71400 | 13000 ft | 351 kts | 74° |
| 2026-05-07 13:49 | 43.86234 | 1.74594 | 12999 ft | 351 kts | 74° |
| 2026-05-07 13:49 | 43.86929 | 1.77829 | 12999 ft | 351 kts | 74° |
| 2026-05-07 13:50 | 43.87625 | 1.81066 | 12994 ft | 351 kts | 74° |
| 2026-05-07 13:50 | 43.88323 | 1.84305 | 12999 ft | 351 kts | 74° |
| 2026-05-07 13:50 | 43.89021 | 1.87543 | 12999 ft | 351 kts | 74° |
| 2026-05-07 13:50 | 43.89717 | 1.90778 | 12999 ft | 351 kts | 74° |
| 2026-05-07 13:51 | 43.90412 | 1.94022 | 13002 ft | 351 kts | 74° |
| 2026-05-07 13:51 | 43.91107 | 1.97271 | 13002 ft | 352 kts | 74° |
| 2026-05-07 13:51 | 43.91878 | 2.00492 | 13007 ft | 352 kts | 67° |
| 2026-05-07 13:51 | 43.93048 | 2.03466 | 13008 ft | 352 kts | 55° |
| 2026-05-07 13:52 | 43.94584 | 2.06114 | 13006 ft | 352 kts | 49° |
| 2026-05-07 13:52 | 43.96180 | 2.08700 | 13008 ft | 352 kts | 49° |
| 2026-05-07 13:52 | 43.97767 | 2.11287 | 13008 ft | 352 kts | 49° |
| 2026-05-07 13:52 | 43.99352 | 2.13880 | 13006 ft | 350 kts | 50° |
| 2026-05-07 13:53 | 44.00893 | 2.16408 | 13011 ft | 338 kts | 49° |
| 2026-05-07 13:53 | 44.02410 | 2.18893 | 13008 ft | 336 kts | 49° |
| 2026-05-07 13:53 | 44.03915 | 2.21363 | 13007 ft | 335 kts | 49° |
| 2026-05-07 13:53 | 44.05421 | 2.23837 | 13007 ft | 335 kts | 49° |
| 2026-05-07 13:54 | 44.06925 | 2.26308 | 13008 ft | 335 kts | 49° |
| 2026-05-07 13:54 | 44.08430 | 2.28783 | 13007 ft | 335 kts | 50° |
| 2026-05-07 13:54 | 44.09931 | 2.31254 | 13010 ft | 334 kts | 49° |
| 2026-05-07 13:54 | 44.11434 | 2.33721 | 13010 ft | 334 kts | 49° |
| 2026-05-07 13:55 | 44.12936 | 2.36189 | 13010 ft | 334 kts | 49° |
| 2026-05-07 13:55 | 44.14438 | 2.38661 | 13010 ft | 334 kts | 49° |
| 2026-05-07 13:55 | 44.15939 | 2.41137 | 13013 ft | 334 kts | 49° |
| 2026-05-07 13:55 | 44.17438 | 2.43617 | 13014 ft | 335 kts | 50° |
| 2026-05-07 13:56 | 44.18938 | 2.46100 | 13011 ft | 335 kts | 50° |
| 2026-05-07 13:56 | 44.20434 | 2.48578 | 13016 ft | 334 kts | 50° |
| 2026-05-07 13:56 | 44.21933 | 2.51059 | 13018 ft | 334 kts | 50° |
| 2026-05-07 13:56 | 44.23412 | 2.53509 | 13021 ft | 334 kts | 50° |
| 2026-05-07 13:57 | 44.24929 | 2.56021 | 13022 ft | 334 kts | 50° |
| 2026-05-07 13:57 | 44.26424 | 2.58503 | 13023 ft | 334 kts | 50° |
| 2026-05-07 13:57 | 44.27898 | 2.60952 | 13018 ft | 334 kts | 50° |
| 2026-05-07 13:57 | 44.29388 | 2.63431 | 13018 ft | 333 kts | 50° |
| 2026-05-07 13:58 | 44.30880 | 2.65913 | 13015 ft | 333 kts | 50° |
| 2026-05-07 13:58 | 44.32369 | 2.68391 | 13013 ft | 333 kts | 50° |
| 2026-05-07 13:58 | 44.33862 | 2.70879 | 13012 ft | 333 kts | 50° |
| 2026-05-07 13:58 | 44.35350 | 2.73360 | 13013 ft | 333 kts | 50° |
| 2026-05-07 13:59 | 44.36836 | 2.75844 | 13011 ft | 333 kts | 50° |
| 2026-05-07 13:59 | 44.38324 | 2.78333 | 13011 ft | 333 kts | 50° |
| 2026-05-07 13:59 | 44.39810 | 2.80819 | 13016 ft | 333 kts | 50° |
| 2026-05-07 13:59 | 44.41296 | 2.83308 | 13017 ft | 333 kts | 50° |
| 2026-05-07 14:00 | 44.42779 | 2.85793 | 13016 ft | 333 kts | 50° |
| 2026-05-07 14:00 | 44.44262 | 2.88275 | 13015 ft | 332 kts | 50° |
| 2026-05-07 14:00 | 44.45743 | 2.90759 | 13010 ft | 332 kts | 50° |
| 2026-05-07 14:00 | 44.47245 | 2.93278 | 13011 ft | 332 kts | 50° |
| 2026-05-07 14:01 | 44.48701 | 2.95729 | 13012 ft | 332 kts | 50° |
| 2026-05-07 14:01 | 44.50178 | 2.98218 | 13012 ft | 332 kts | 50° |
| 2026-05-07 14:01 | 44.51656 | 3.00708 | 13011 ft | 332 kts | 50° |
| 2026-05-07 14:01 | 44.53131 | 3.03193 | 13010 ft | 332 kts | 50° |
| 2026-05-07 14:02 | 44.54604 | 3.05680 | 12999 ft | 332 kts | 50° |
| 2026-05-07 14:02 | 44.56078 | 3.08169 | 12997 ft | 332 kts | 50° |
| 2026-05-07 14:02 | 44.57548 | 3.10661 | 12999 ft | 331 kts | 51° |
| 2026-05-07 14:02 | 44.59019 | 3.13154 | 12998 ft | 332 kts | 51° |
| 2026-05-07 14:03 | 44.60483 | 3.15652 | 12998 ft | 331 kts | 53° |
| 2026-05-07 14:03 | 44.61708 | 3.18383 | 12998 ft | 331 kts | 61° |
| 2026-05-07 14:03 | 44.62835 | 3.21197 | 12992 ft | 331 kts | 61° |
| 2026-05-07 14:03 | 44.63966 | 3.24013 | 12991 ft | 331 kts | 61° |
| 2026-05-07 14:04 | 44.65099 | 3.26830 | 12992 ft | 331 kts | 61° |
| 2026-05-07 14:04 | 44.66231 | 3.29647 | 12993 ft | 331 kts | 61° |
| 2026-05-07 14:04 | 44.67362 | 3.32464 | 12993 ft | 331 kts | 61° |
| 2026-05-07 14:04 | 44.68490 | 3.35281 | 12993 ft | 331 kts | 61° |
| 2026-05-07 14:05 | 44.69617 | 3.38100 | 12994 ft | 331 kts | 61° |
| 2026-05-07 14:05 | 44.70741 | 3.40922 | 12993 ft | 331 kts | 61° |
| 2026-05-07 14:05 | 44.71869 | 3.43751 | 12995 ft | 331 kts | 61° |
| 2026-05-07 14:05 | 44.72991 | 3.46574 | 12995 ft | 331 kts | 61° |
| 2026-05-07 14:06 | 44.74116 | 3.49402 | 12997 ft | 331 kts | 61° |
| 2026-05-07 14:06 | 44.75242 | 3.52228 | 12997 ft | 331 kts | 61° |
| 2026-05-07 14:06 | 44.76367 | 3.55051 | 12997 ft | 331 kts | 61° |
| 2026-05-07 14:06 | 44.77491 | 3.57875 | 12996 ft | 331 kts | 61° |
| 2026-05-07 14:07 | 44.78614 | 3.60703 | 12995 ft | 331 kts | 61° |
| 2026-05-07 14:07 | 44.79736 | 3.63533 | 12998 ft | 331 kts | 61° |
| 2026-05-07 14:07 | 44.80855 | 3.66365 | 12999 ft | 331 kts | 62° |
| 2026-05-07 14:07 | 44.81974 | 3.69196 | 13000 ft | 331 kts | 61° |
| 2026-05-07 14:08 | 44.83091 | 3.72021 | 12998 ft | 331 kts | 61° |
| 2026-05-07 14:08 | 44.84212 | 3.74853 | 12999 ft | 331 kts | 62° |
| 2026-05-07 14:08 | 44.85329 | 3.77683 | 12997 ft | 331 kts | 62° |
| 2026-05-07 14:08 | 44.86444 | 3.80517 | 12998 ft | 330 kts | 62° |
| 2026-05-07 14:09 | 44.87557 | 3.83350 | 12997 ft | 330 kts | 62° |
| 2026-05-07 14:09 | 44.88655 | 3.86144 | 12998 ft | 330 kts | 62° |
| 2026-05-07 14:09 | 44.89767 | 3.88975 | 12999 ft | 330 kts | 62° |
| 2026-05-07 14:09 | 44.90879 | 3.91804 | 13001 ft | 330 kts | 62° |
| 2026-05-07 14:10 | 44.92006 | 3.94673 | 13000 ft | 330 kts | 62° |
| 2026-05-07 14:10 | 44.93117 | 3.97507 | 12997 ft | 330 kts | 62° |
| 2026-05-07 14:10 | 44.94209 | 4.00295 | 12996 ft | 330 kts | 62° |
| 2026-05-07 14:10 | 44.95318 | 4.03129 | 12994 ft | 330 kts | 62° |
| 2026-05-07 14:11 | 44.96424 | 4.05963 | 12997 ft | 330 kts | 62° |
| 2026-05-07 14:11 | 44.97543 | 4.08837 | 12997 ft | 330 kts | 62° |
| 2026-05-07 14:11 | 44.98631 | 4.11641 | 12997 ft | 330 kts | 62° |
| 2026-05-07 14:11 | 44.99735 | 4.14479 | 12994 ft | 330 kts | 62° |
| 2026-05-07 14:12 | 45.00836 | 4.17316 | 13006 ft | 329 kts | 62° |
| 2026-05-07 14:12 | 45.01862 | 4.20207 | 13001 ft | 329 kts | 69° |
| 2026-05-07 14:12 | 45.02621 | 4.23254 | 12997 ft | 329 kts | 72° |
| 2026-05-07 14:12 | 45.03371 | 4.26307 | 12995 ft | 329 kts | 72° |
| 2026-05-07 14:13 | 45.04121 | 4.29359 | 12998 ft | 328 kts | 72° |
| 2026-05-07 14:13 | 45.04868 | 4.32406 | 12997 ft | 328 kts | 72° |
| 2026-05-07 14:13 | 45.05615 | 4.35458 | 12998 ft | 328 kts | 72° |
| 2026-05-07 14:13 | 45.06361 | 4.38519 | 12998 ft | 328 kts | 72° |
| 2026-05-07 14:14 | 45.07106 | 4.41572 | 13002 ft | 328 kts | 72° |
| 2026-05-07 14:14 | 45.07852 | 4.44625 | 13003 ft | 328 kts | 72° |
| 2026-05-07 14:14 | 45.08597 | 4.47680 | 13003 ft | 328 kts | 72° |
| 2026-05-07 14:14 | 45.09341 | 4.50734 | 13005 ft | 328 kts | 72° |
| 2026-05-07 14:15 | 45.10083 | 4.53790 | 13005 ft | 328 kts | 72° |
| 2026-05-07 14:15 | 45.10825 | 4.56848 | 13003 ft | 328 kts | 72° |
| 2026-05-07 14:15 | 45.11564 | 4.59901 | 13001 ft | 328 kts | 72° |
| 2026-05-07 14:15 | 45.12306 | 4.62963 | 12986 ft | 329 kts | 72° |
| 2026-05-07 14:16 | 45.13035 | 4.65984 | 12982 ft | 329 kts | 73° |
| 2026-05-07 14:16 | 45.13776 | 4.69059 | 12962 ft | 329 kts | 73° |
| 2026-05-07 14:16 | 45.14506 | 4.72090 | 12695 ft | 322 kts | 73° |
| 2026-05-07 14:16 | 45.15224 | 4.75072 | 12435 ft | 317 kts | 73° |
| 2026-05-07 14:17 | 45.15927 | 4.77998 | 12172 ft | 311 kts | 72° |
| 2026-05-07 14:17 | 45.16736 | 4.80822 | 11921 ft | 309 kts | 62° |
| 2026-05-07 14:17 | 45.18024 | 4.83250 | 11663 ft | 309 kts | 45° |
| 2026-05-07 14:17 | 45.19730 | 4.85065 | 11409 ft | 306 kts | 28° |
| 2026-05-07 14:18 | 45.21695 | 4.86172 | 11069 ft | 304 kts | 16° |
| 2026-05-07 14:18 | 45.23721 | 4.87031 | 10682 ft | 304 kts | 17° |
| 2026-05-07 14:18 | 45.25750 | 4.87898 | 10280 ft | 305 kts | 17° |
| 2026-05-07 14:18 | 45.27743 | 4.88917 | 9908 ft | 304 kts | 27° |
| 2026-05-07 14:19 | 45.29493 | 4.90539 | 9662 ft | 297 kts | 41° |
| 2026-05-07 14:19 | 45.30990 | 4.92486 | 9524 ft | 287 kts | 43° |
| 2026-05-07 14:19 | 45.32434 | 4.94367 | 9375 ft | 277 kts | 43° |
| 2026-05-07 14:19 | 45.33843 | 4.96198 | 9132 ft | 272 kts | 43° |
| 2026-05-07 14:20 | 45.34781 | 4.97416 | 8943 ft | 270 kts | 43° |
| 2026-05-07 14:20 | 45.36163 | 4.99209 | 8616 ft | 268 kts | 42° |
| 2026-05-07 14:20 | 45.37537 | 5.00993 | 8303 ft | 266 kts | 43° |
| 2026-05-07 14:20 | 45.38896 | 5.02757 | 7992 ft | 263 kts | 42° |
| 2026-05-07 14:21 | 45.40222 | 5.04480 | 7666 ft | 261 kts | 44° |
| 2026-05-07 14:21 | 45.41564 | 5.06226 | 7316 ft | 261 kts | 43° |
| 2026-05-07 14:21 | 45.42893 | 5.07961 | 7004 ft | 258 kts | 43° |
| 2026-05-07 14:21 | 45.44211 | 5.09683 | 6682 ft | 256 kts | 43° |
| 2026-05-07 14:22 | 45.46131 | 5.11610 | 6250 ft | 252 kts | 21° |
| 2026-05-07 14:22 | 45.47236 | 5.12069 | 5974 ft | 251 kts | 9° |
| 2026-05-07 14:22 | 45.49018 | 5.12106 | 5274 ft | 262 kts | 355° |
| 2026-05-07 14:22 | 45.50875 | 5.11903 | 4636 ft | 271 kts | 355° |
| 2026-05-07 14:23 | 45.52732 | 5.11704 | 4378 ft | 263 kts | 355° |
| 2026-05-07 14:23 | 45.54518 | 5.11496 | 4083 ft | 251 kts | 355° |
| 2026-05-07 14:23 | 45.56206 | 5.11285 | 3767 ft | 237 kts | 355° |
| 2026-05-07 14:23 | 45.57809 | 5.11089 | 3449 ft | 224 kts | 355° |
| 2026-05-07 14:24 | 45.59316 | 5.10893 | 3108 ft | 211 kts | 354° |
| 2026-05-07 14:24 | 45.60740 | 5.10721 | 2881 ft | 199 kts | 355° |
| 2026-05-07 14:24 | 45.62078 | 5.10569 | 2647 ft | 189 kts | 355° |
| 2026-05-07 14:24 | 45.63346 | 5.10418 | 2393 ft | 175 kts | 355° |
| 2026-05-07 14:25 | 45.64519 | 5.10277 | 2161 ft | 164 kts | 355° |
| 2026-05-07 14:25 | 45.65607 | 5.10145 | 1961 ft | 150 kts | 355° |
| 2026-05-07 14:25 | 45.66606 | 5.10024 | 1763 ft | 139 kts | 355° |
| 2026-05-07 14:25 | 45.67550 | 5.09909 | 1550 ft | 135 kts | 354° |
| 2026-05-07 14:26 | 45.68483 | 5.09796 | 1404 ft | 134 kts | 356° |
| 2026-05-07 14:26 | 45.69421 | 5.09683 | 1206 ft | 135 kts | 356° |
| 2026-05-07 14:26 | 45.70352 | 5.09570 | 1022 ft | 133 kts | 358° |
| 2026-05-07 14:26 | 45.71271 | 5.09455 | 848 ft | 131 kts | 356° |
| 2026-05-07 14:27 | 45.72085 | 5.09360 | 817 ft | 97 kts | 355° |
| 2026-05-07 14:27 | 45.72557 | 5.09298 | 811 ft | 27 kts | 353° |
| 2026-05-07 14:27 | 45.72712 | 5.09268 | 804 ft | 24 kts | 346° |
| 2026-05-07 14:27 | 45.72863 | 5.09174 | 802 ft | 21 kts | 327° |
| 2026-05-07 14:28 | 45.72941 | 5.09093 | 797 ft | 6 kts | 320° |
| 2026-05-07 14:28 | 45.72946 | 5.09087 | 797 ft | 0 kts | 319° |
| 2026-05-07 14:28 | 45.72948 | 5.09084 | 797 ft | 2 kts | 317° |
| 2026-05-07 14:29 | 45.72966 | 5.09026 | 794 ft | 14 kts | 278° |
| 2026-05-07 14:29 | 45.72964 | 5.08952 | 792 ft | 0 kts | 265° |
| 2026-05-07 14:29 | 45.72964 | 5.08948 | 792 ft | 1 kts | 265° |
| 2026-05-07 14:29 | 45.72961 | 5.08913 | 792 ft | 10 kts | 265° |
| 2026-05-07 14:30 | 45.72953 | 5.08762 | 792 ft | 18 kts | 266° |
| 2026-05-07 14:30 | 45.72945 | 5.08575 | 792 ft | 19 kts | 265° |
| 2026-05-07 14:30 | 45.72931 | 5.08435 | 790 ft | 12 kts | 250° |
| 2026-05-07 14:30 | 45.72877 | 5.08365 | 790 ft | 10 kts | 200° |
| 2026-05-07 14:31 | 45.72815 | 5.08360 | 791 ft | 8 kts | 178° |
| 2026-05-07 14:31 | 45.72766 | 5.08363 | 791 ft | 6 kts | 177° |
| 2026-05-07 14:31 | 45.72726 | 5.08368 | 791 ft | 5 kts | 174° |
| 2026-05-07 14:31 | 45.72694 | 5.08373 | 791 ft | 4 kts | 174° |
| 2026-05-07 14:32 | 45.72636 | 5.08380 | 792 ft | 12 kts | 175° |
| 2026-05-07 14:32 | 45.72548 | 5.08391 | 796 ft | 14 kts | 175° |
| 2026-05-07 14:32 | 45.72430 | 5.08404 | 797 ft | 19 kts | 176° |
| 2026-05-07 14:32 | 45.72306 | 5.08413 | 799 ft | 10 kts | 177° |
| 2026-05-07 14:33 | 45.72266 | 5.08374 | 799 ft | 7 kts | 246° |
| 2026-05-07 14:33 | 45.72265 | 5.08294 | 797 ft | 10 kts | 307° |
| 2026-05-07 14:33 | 45.72341 | 5.08275 | 797 ft | 12 kts | 2° |
| 2026-05-07 14:33 | 45.72371 | 5.08276 | 797 ft | 0 kts | 358° |